Time;durP1;ratioP1;P1;durP2;ratioP2;P2;SDS_P1;SDS_P2;PMS_P1;PMS_P2;Temp;Humidity;BMP_temperature;BMP_pressure;BME280_temperature;BME280_humidity;BME280_pressure;Samples;Min_cycle;Max_cycle;Signal;HPM_P1;HPM_P2
2021/06/02 00:00:10;;;;;;;7.80;4.90;;;15.60;99.90;;;;;;5008538;28;20456;-70
2021/06/02 00:02:41;;;;;;;4.53;3.40;;;15.50;99.90;;;;;;4997105;28;20528;-70
2021/06/02 00:05:08;;;;;;;6.30;4.23;;;15.50;99.90;;;;;;5007820;28;20433;-70
2021/06/02 00:07:34;;;;;;;5.40;4.20;;;15.40;99.90;;;;;;5003421;28;20433;-70
2021/06/02 00:10:00;;;;;;;4.30;3.90;;;15.40;99.90;;;;;;5006620;28;20875;-70
2021/06/02 00:12:26;;;;;;;4.90;4.40;;;15.40;99.90;;;;;;5007202;28;20545;-70
2021/06/02 00:14:51;;;;;;;6.50;4.90;;;15.40;99.90;;;;;;5003226;28;20464;-70
2021/06/02 00:17:19;;;;;;;5.57;4.93;;;15.30;99.90;;;;;;5007660;28;21707;-70
2021/06/02 00:19:44;;;;;;;6.17;5.13;;;15.30;99.90;;;;;;5009004;28;20175;-70
2021/06/02 00:22:10;;;;;;;5.27;4.80;;;15.30;99.90;;;;;;5008215;28;20971;-70
2021/06/02 00:24:36;;;;;;;7.73;4.50;;;15.20;99.90;;;;;;5002321;28;20182;-70
2021/06/02 00:27:06;;;;;;;6.63;4.57;;;15.30;99.90;;;;;;5003293;28;20565;-70
2021/06/02 00:29:34;;;;;;;8.57;4.80;;;15.20;99.90;;;;;;5003377;28;20499;-70
2021/06/02 00:32:02;;;;;;;4.87;4.33;;;15.20;99.90;;;;;;5003877;28;20828;-70
2021/06/02 00:34:29;;;;;;;5.37;4.80;;;15.20;99.90;;;;;;5005012;28;21095;-70
2021/06/02 00:36:55;;;;;;;7.33;5.20;;;15.20;99.90;;;;;;5002428;28;20452;-70
2021/06/02 00:39:20;;;;;;;5.97;4.53;;;15.10;99.90;;;;;;5005322;28;20465;-70
2021/06/02 00:41:48;;;;;;;5.80;4.40;;;15.10;99.90;;;;;;5008549;28;20507;-70
2021/06/02 00:44:16;;;;;;;10.37;4.83;;;15.10;99.90;;;;;;5002957;28;20184;-70
2021/06/02 00:46:43;;;;;;;4.90;4.47;;;15.00;99.90;;;;;;5004022;28;20944;-70
2021/06/02 00:49:11;;;;;;;4.20;3.73;;;15.10;99.90;;;;;;5000942;28;20433;-70
2021/06/02 00:51:37;;;;;;;6.33;4.40;;;15.00;99.90;;;;;;5007744;28;20475;-70
2021/06/02 00:54:05;;;;;;;5.27;4.87;;;15.00;99.90;;;;;;5004580;28;20942;-70
2021/06/02 00:56:38;;;;;;;5.20;4.70;;;14.90;99.90;;;;;;5004896;28;20460;-70
2021/06/02 00:59:04;;;;;;;4.70;4.30;;;14.90;99.90;;;;;;5001800;28;20456;-70
2021/06/02 01:01:34;;;;;;;5.33;4.23;;;14.90;99.90;;;;;;5007906;28;20442;-70
2021/06/02 01:04:02;;;;;;;5.10;4.70;;;14.90;99.90;;;;;;5009756;28;20440;-70
2021/06/02 01:06:29;;;;;;;5.57;4.10;;;14.80;99.90;;;;;;5004169;28;20565;-70
2021/06/02 01:08:58;;;;;;;7.90;5.10;;;14.80;99.90;;;;;;5009890;28;20467;-70
2021/06/02 01:11:27;;;;;;;7.37;4.50;;;14.80;99.90;;;;;;5009739;28;20941;-70
2021/06/02 01:13:57;;;;;;;4.83;4.40;;;14.80;99.90;;;;;;4999586;28;20443;-70
2021/06/02 01:16:27;;;;;;;4.97;4.47;;;14.70;99.90;;;;;;5008696;28;20475;-70
2021/06/02 01:18:52;;;;;;;5.60;4.67;;;14.70;99.90;;;;;;5001817;28;20451;-70
2021/06/02 01:21:21;;;;;;;6.47;4.90;;;14.70;99.90;;;;;;5006228;28;20432;-70
2021/06/02 01:23:48;;;;;;;5.17;4.67;;;14.70;99.90;;;;;;5003663;28;20182;-70
2021/06/02 01:26:14;;;;;;;7.40;4.37;;;14.70;99.90;;;;;;5005249;28;20909;-70
2021/06/02 01:28:40;;;;;;;5.00;4.43;;;14.60;99.90;;;;;;4999797;28;20435;-70
2021/06/02 01:31:07;;;;;;;7.00;4.90;;;14.60;99.90;;;;;;5004903;28;20413;-70
2021/06/02 01:33:48;;;;;;;5.40;4.43;;;14.60;99.90;;;;;;5007891;28;20170;-70
2021/06/02 01:36:17;;;;;;;7.07;4.77;;;14.60;99.90;;;;;;5004986;28;20466;-70
2021/06/02 01:47:20;;;;;;;4.27;3.87;;;14.50;99.90;;;;;;5047331;28;20542;-69
2021/06/02 01:56:17;;;;;;;6.13;4.73;;;14.40;99.90;;;;;;5065267;28;20971;-70
2021/06/02 01:59:22;;;;;;;6.30;5.60;;;14.40;99.90;;;;;;5038507;28;20490;-70
2021/06/02 02:07:57;;;;;;;5.30;4.20;;;14.30;99.90;;;;;;5049670;28;21184;-70
2021/06/02 02:10:53;;;;;;;6.67;4.97;;;14.30;99.90;;;;;;5061084;28;20528;-70
2021/06/02 02:16:17;;;;;;;6.00;5.00;;;14.20;99.90;;;;;;5071734;28;21318;-70
2021/06/02 02:19:15;;;;;;;5.03;4.63;;;14.30;99.90;;;;;;5055024;28;20437;-70
2021/06/02 02:24:58;;;;;;;7.77;4.90;;;14.20;99.90;;;;;;5088339;27;20534;-69
2021/06/02 02:33:53;;;;;;;7.40;5.10;;;14.30;99.90;;;;;;5038772;28;20573;-70
2021/06/02 02:39:39;;;;;;;5.10;4.70;;;14.30;99.90;;;;;;5132898;27;20871;-70
2021/06/02 03:03:46;;;;;;;4.67;4.10;;;14.20;99.90;;;;;;5032100;28;20553;-69
2021/06/02 03:06:23;;;;;;;4.73;4.30;;;14.20;99.90;;;;;;5034315;28;20445;-69
2021/06/02 03:09:14;;;;;;;4.53;4.13;;;14.10;99.90;;;;;;5044131;28;20860;-69
2021/06/02 03:11:55;;;;;;;8.37;4.47;;;14.10;99.90;;;;;;5040545;28;20438;-69
2021/06/02 03:14:31;;;;;;;6.07;4.67;;;14.10;99.90;;;;;;5040562;28;20434;-69
2021/06/02 03:17:02;;;;;;;4.93;4.40;;;14.10;99.90;;;;;;5040730;28;20511;-69
2021/06/02 03:19:42;;;;;;;5.17;4.67;;;14.10;99.90;;;;;;5042710;28;20442;-69
2021/06/02 03:22:12;;;;;;;5.03;4.53;;;14.10;99.90;;;;;;5041599;28;20537;-69
2021/06/02 03:27:29;;;;;;;4.90;4.10;;;14.10;99.90;;;;;;5053279;28;20652;-69
2021/06/02 03:30:07;;;;;;;10.30;4.77;;;14.00;99.90;;;;;;5048927;28;20426;-69
2021/06/02 03:33:13;;;;;;;4.83;4.10;;;14.00;99.90;;;;;;5056880;28;20423;-69
2021/06/02 03:39:02;;;;;;;5.37;4.83;;;14.00;99.90;;;;;;5041916;28;20529;-70
2021/06/02 03:41:47;;;;;;;5.37;4.83;;;13.90;99.90;;;;;;5045472;28;20438;-70
2021/06/02 03:44:27;;;;;;;6.33;4.87;;;13.90;99.90;;;;;;5029096;28;20430;-70
2021/06/02 03:47:14;;;;;;;7.00;4.87;;;13.90;99.90;;;;;;5040344;28;20418;-70
2021/06/02 03:50:19;;;;;;;5.60;4.70;;;13.90;99.90;;;;;;5041080;28;20780;-70
2021/06/02 03:52:48;;;;;;;5.70;4.57;;;13.80;99.90;;;;;;5034756;28;20434;-70
2021/06/02 03:55:42;;;;;;;8.80;4.80;;;13.80;99.90;;;;;;5034151;28;20989;-70
2021/06/02 03:58:29;;;;;;;7.57;5.33;;;13.80;99.90;;;;;;5037938;28;20454;-70
2021/06/02 04:01:10;;;;;;;5.53;4.43;;;13.80;99.90;;;;;;5012926;28;20420;-70
2021/06/02 04:04:08;;;;;;;5.00;4.37;;;13.80;99.90;;;;;;5023128;28;20509;-70
2021/06/02 04:06:42;;;;;;;5.00;4.50;;;13.80;99.90;;;;;;5020458;28;20458;-70
2021/06/02 04:09:11;;;;;;;5.77;4.80;;;13.80;99.90;;;;;;5019432;28;20423;-70
2021/06/02 04:11:59;;;;;;;8.37;5.67;;;13.80;99.90;;;;;;5022123;28;20436;-67
2021/06/02 04:14:42;;;;;;;5.47;5.07;;;13.80;99.90;;;;;;5020727;28;20438;-70
2021/06/02 04:17:08;;;;;;;5.20;4.70;;;13.80;99.90;;;;;;5019534;28;20800;-70
2021/06/02 04:19:35;;;;;;;5.70;4.33;;;13.80;99.90;;;;;;5018238;28;20589;-70
2021/06/02 04:22:03;;;;;;;6.17;5.50;;;13.80;99.90;;;;;;5019026;28;20193;-70
2021/06/02 04:24:31;;;;;;;5.80;5.40;;;13.80;99.90;;;;;;5010570;28;20991;-70
2021/06/02 04:26:57;;;;;;;6.20;5.10;;;13.80;99.90;;;;;;5018000;28;20463;-70
2021/06/02 04:29:25;;;;;;;6.27;5.20;;;13.80;99.90;;;;;;5021751;28;20432;-70
2021/06/02 04:31:59;;;;;;;9.37;4.90;;;13.80;99.90;;;;;;5020087;28;20431;-70
2021/06/02 04:34:28;;;;;;;7.70;5.67;;;13.80;99.90;;;;;;5020591;28;20431;-70
2021/06/02 04:37:00;;;;;;;5.63;5.20;;;13.80;99.90;;;;;;5019828;28;20862;-70
2021/06/02 04:39:27;;;;;;;5.53;4.97;;;13.80;99.90;;;;;;5022848;28;20423;-70
2021/06/02 04:41:54;;;;;;;8.30;5.10;;;13.80;99.90;;;;;;5018610;28;20992;-70
2021/06/02 04:44:22;;;;;;;6.90;5.00;;;13.80;99.90;;;;;;5017210;28;20470;-70
2021/06/02 04:46:48;;;;;;;5.80;5.30;;;13.80;99.90;;;;;;5017443;28;20427;-70
2021/06/02 04:49:14;;;;;;;8.20;6.97;;;13.90;99.90;;;;;;5026276;28;20478;-70
2021/06/02 04:51:40;;;;;;;7.07;5.40;;;13.90;99.90;;;;;;5010483;28;20921;-70
2021/06/02 04:54:27;;;;;;;6.30;5.70;;;13.90;99.90;;;;;;5010294;28;20511;-70
2021/06/02 04:57:25;;;;;;;6.03;5.50;;;14.00;99.90;;;;;;4997259;28;20283;-70
2021/06/02 05:00:04;;;;;;;6.40;5.80;;;14.00;99.90;;;;;;5008445;28;20550;-70
2021/06/02 05:02:59;;;;;;;5.90;5.20;;;14.10;99.90;;;;;;5009916;28;20428;-70
2021/06/02 05:05:57;;;;;;;5.63;5.13;;;14.20;99.90;;;;;;4997692;28;20424;-70
2021/06/02 05:09:03;;;;;;;7.00;6.27;;;14.20;99.90;;;;;;4998003;28;20470;-70
2021/06/02 05:11:52;;;;;;;6.20;5.53;;;14.30;99.90;;;;;;5005940;28;20433;-70
2021/06/02 05:14:45;;;;;;;7.23;6.07;;;14.30;99.90;;;;;;5009028;28;20519;-70
2021/06/02 05:17:38;;;;;;;8.97;6.63;;;14.40;99.90;;;;;;4998021;28;20603;-70
2021/06/02 05:20:25;;;;;;;8.50;5.60;;;14.40;99.90;;;;;;5009122;28;20847;-70
2021/06/02 05:23:15;;;;;;;7.10;6.30;;;14.50;99.90;;;;;;5006047;28;20970;-70
2021/06/02 05:26:18;;;;;;;7.57;6.77;;;14.60;99.90;;;;;;5006681;28;20428;-70
2021/06/02 05:28:47;;;;;;;7.83;5.77;;;14.70;99.90;;;;;;4996397;28;21053;-70
2021/06/02 05:31:31;;;;;;;6.60;6.00;;;14.80;99.90;;;;;;4994146;28;21156;-70
2021/06/02 05:34:21;;;;;;;7.40;6.40;;;14.90;99.90;;;;;;5014167;28;20490;-68
2021/06/02 05:37:26;;;;;;;6.10;5.50;;;14.90;99.90;;;;;;5002897;28;20468;-68
2021/06/02 05:40:10;;;;;;;6.30;5.70;;;15.10;99.90;;;;;;4999769;28;20445;-68
2021/06/02 05:43:11;;;;;;;7.77;6.63;;;15.20;99.90;;;;;;4997607;28;21017;-68
2021/06/02 05:46:09;;;;;;;7.10;6.33;;;15.30;99.90;;;;;;5000300;28;20440;-68
2021/06/02 05:49:06;;;;;;;6.70;6.10;;;15.40;99.90;;;;;;4999276;28;21295;-68
2021/06/02 05:52:01;;;;;;;7.70;6.43;;;15.50;99.90;;;;;;5006422;28;20438;-68
2021/06/02 05:55:04;;;;;;;8.50;6.00;;;15.70;99.90;;;;;;5001681;28;20445;-68
2021/06/02 05:57:51;;;;;;;7.07;6.37;;;15.80;99.90;;;;;;5016291;28;21039;-68
2021/06/02 06:00:38;;;;;;;10.73;6.73;;;15.90;99.90;;;;;;5003093;28;20836;-68
2021/06/02 06:03:18;;;;;;;8.07;6.60;;;16.00;99.90;;;;;;5007456;28;20548;-68
2021/06/02 06:06:08;;;;;;;6.70;6.00;;;16.10;99.90;;;;;;4997473;28;20432;-68
2021/06/02 06:08:58;;;;;;;7.80;5.90;;;16.20;99.90;;;;;;5001171;28;20844;-68
2021/06/02 06:11:51;;;;;;;8.47;6.30;;;16.40;99.90;;;;;;5004824;28;20461;-68
2021/06/02 06:14:35;;;;;;;8.37;6.70;;;16.50;99.90;;;;;;5003747;28;20943;-68
2021/06/02 06:17:13;;;;;;;9.50;6.30;;;16.60;99.90;;;;;;5005128;28;20508;-68
2021/06/02 06:19:50;;;;;;;9.43;6.33;;;16.70;99.90;;;;;;5003782;28;20481;-68
2021/06/02 06:22:52;;;;;;;9.93;7.03;;;16.80;99.90;;;;;;5005179;28;20422;-68
2021/06/02 06:25:50;;;;;;;10.13;6.07;;;16.90;99.90;;;;;;5004710;28;20430;-68
2021/06/02 06:28:27;;;;;;;6.20;5.60;;;17.00;99.90;;;;;;5005131;28;20491;-68
2021/06/02 06:30:53;;;;;;;5.23;4.80;;;17.10;99.90;;;;;;5005108;28;20438;-68
2021/06/02 06:33:21;;;;;;;7.70;5.30;;;17.20;99.90;;;;;;5005404;28;20877;-68
2021/06/02 06:35:47;;;;;;;6.30;5.30;;;17.30;99.90;;;;;;5002620;28;20432;-68
2021/06/02 06:38:28;;;;;;;6.40;4.93;;;17.30;99.90;;;;;;4994275;28;20464;-68
2021/06/02 06:40:54;;;;;;;7.37;5.50;;;17.40;99.90;;;;;;5005365;28;20419;-68
2021/06/02 06:43:22;;;;;;;6.40;4.63;;;17.50;99.90;;;;;;5002474;28;20990;-68
2021/06/02 06:45:49;;;;;;;5.27;4.77;;;17.60;99.90;;;;;;5004682;28;20420;-68
2021/06/02 06:48:21;;;;;;;6.67;4.20;;;17.70;99.90;;;;;;5002652;28;20444;-68
2021/06/02 06:50:48;;;;;;;6.27;4.33;;;17.80;99.90;;;;;;5005488;28;20419;-68
2021/06/02 06:53:16;;;;;;;8.90;4.23;;;17.90;99.90;;;;;;5002565;28;20437;-68
2021/06/02 06:55:44;;;;;;;12.43;4.70;;;18.00;99.90;;;;;;5004084;28;20453;-68
2021/06/02 06:58:10;;;;;;;7.03;4.57;;;18.10;99.90;;;;;;5005877;28;20452;-68
2021/06/02 07:00:36;;;;;;;4.20;3.80;;;18.20;99.90;;;;;;4998905;28;20446;-68
2021/06/02 07:03:03;;;;;;;8.80;4.30;;;18.40;99.60;;;;;;5007532;28;20169;-68
2021/06/02 07:05:28;;;;;;;5.70;3.80;;;18.60;98.80;;;;;;5005135;28;20432;-68
2021/06/02 07:07:55;;;;;;;7.10;3.50;;;18.80;98.50;;;;;;5012337;28;20439;-68
2021/06/02 07:10:21;;;;;;;3.73;3.27;;;18.90;99.00;;;;;;5005297;28;20192;-68
2021/06/02 07:12:48;;;;;;;4.23;3.77;;;19.10;97.80;;;;;;4998978;28;20429;-68
2021/06/02 07:15:15;;;;;;;4.90;3.40;;;19.30;97.00;;;;;;4998352;28;20445;-68
2021/06/02 07:17:45;;;;;;;3.10;2.80;;;19.50;91.80;;;;;;4996013;28;20458;-68
2021/06/02 07:20:19;;;;;;;4.50;2.60;;;19.80;92.00;;;;;;4995414;28;20421;-68
2021/06/02 07:22:46;;;;;;;5.30;2.80;;;20.00;89.60;;;;;;4999941;28;20425;-68
2021/06/02 07:25:17;;;;;;;2.60;2.40;;;20.50;87.00;;;;;;5002271;28;20443;-68
2021/06/02 07:27:44;;;;;;;3.07;2.43;;;21.10;85.50;;;;;;4997190;28;20456;-69
2021/06/02 07:30:11;;;;;;;3.17;2.87;;;22.20;78.10;;;;;;4992627;28;20468;-69
2021/06/02 07:32:37;;;;;;;4.43;2.50;;;23.70;72.00;;;;;;4997519;28;20440;-69
2021/06/02 07:35:03;;;;;;;3.43;3.03;;;25.30;58.80;;;;;;4998192;28;20432;-69
2021/06/02 07:37:28;;;;;;;4.10;3.20;;;27.00;53.80;;;;;;5001909;28;20290;-69
2021/06/02 07:39:54;;;;;;;3.00;2.80;;;28.50;50.00;;;;;;5000344;28;20986;-69
2021/06/02 07:42:19;;;;;;;2.77;2.57;;;29.70;46.40;;;;;;4995204;28;20247;-69
2021/06/02 07:44:45;;;;;;;3.70;3.20;;;30.80;42.40;;;;;;4994895;28;20235;-69
2021/06/02 07:47:11;;;;;;;2.03;1.93;;;31.80;38.40;;;;;;5001101;28;20239;-70
2021/06/02 07:49:36;;;;;;;2.97;2.10;;;32.80;35.60;;;;;;4996503;28;20265;-70
2021/06/02 07:52:02;;;;;;;3.03;2.50;;;33.70;33.90;;;;;;4997676;28;20182;-70
2021/06/02 07:54:28;;;;;;;3.07;2.33;;;34.40;31.10;;;;;;4997453;28;20190;-70
2021/06/02 07:56:54;;;;;;;3.20;2.10;;;35.00;28.80;;;;;;5003986;28;20460;-70
2021/06/02 07:59:20;;;;;;;3.07;2.33;;;35.30;28.90;;;;;;4996767;28;20201;-70
2021/06/02 08:01:46;;;;;;;3.00;2.80;;;35.80;28.00;;;;;;5003795;28;20173;-70
2021/06/02 08:04:12;;;;;;;2.57;2.37;;;36.10;27.40;;;;;;5006717;28;20170;-70
2021/06/02 08:06:41;;;;;;;2.10;2.00;;;36.30;27.80;;;;;;5003632;28;20963;-70
2021/06/02 08:09:07;;;;;;;2.27;2.07;;;36.50;25.90;;;;;;4999832;28;20800;-71
2021/06/02 08:11:33;;;;;;;1.83;1.73;;;36.60;26.60;;;;;;5003409;28;20803;-71
2021/06/02 08:13:59;;;;;;;2.87;2.30;;;37.10;27.30;;;;;;5003128;28;20455;-71
2021/06/02 08:16:24;;;;;;;2.30;2.10;;;37.70;26.70;;;;;;5006107;28;20173;-71
2021/06/02 08:18:51;;;;;;;2.97;1.87;;;38.60;25.10;;;;;;4997683;28;20677;-71
2021/06/02 08:21:17;;;;;;;2.50;2.23;;;39.40;23.90;;;;;;5017785;28;20177;-71
2021/06/02 08:23:42;;;;;;;3.93;2.47;;;40.20;23.60;;;;;;5006721;28;20431;-71
2021/06/02 08:26:09;;;;;;;1.87;1.77;;;40.90;21.90;;;;;;5004678;28;20324;-71
2021/06/02 08:28:35;;;;;;;2.20;2.00;;;41.70;20.50;;;;;;5007690;28;20638;-71
2021/06/02 08:31:02;;;;;;;2.08;1.88;;;42.00;19.80;;;;;;5006151;28;20204;-71
2021/06/02 08:33:27;;;;;;;1.98;1.75;;;42.10;19.90;;;;;;5003564;28;20192;-71
2021/06/02 08:35:53;;;;;;;2.20;2.08;;;42.70;19.60;;;;;;5017015;28;20641;-71
2021/06/02 08:38:19;;;;;;;2.13;1.98;;;43.40;18.90;;;;;;5004081;28;20310;-71
2021/06/02 08:40:44;;;;;;;2.95;2.00;;;43.70;18.40;;;;;;5007694;28;20198;-71
2021/06/02 08:43:11;;;;;;;2.47;1.88;;;43.90;18.00;;;;;;5005163;28;20513;-71
2021/06/02 08:45:37;;;;;;;1.75;1.65;;;44.20;18.90;;;;;;5002387;28;20189;-71
2021/06/02 08:48:04;;;;;;;1.92;1.83;;;44.60;18.40;;;;;;5001944;28;20708;-71
2021/06/02 08:50:30;;;;;;;2.20;1.60;;;45.00;18.80;;;;;;4999809;28;20238;-71
2021/06/02 08:53:00;;;;;;;2.13;1.90;;;45.20;18.80;;;;;;5000654;28;20177;-71
2021/06/02 08:55:26;;;;;;;1.85;1.75;;;45.60;18.30;;;;;;5004944;28;20169;-71
2021/06/02 08:57:52;;;;;;;4.53;2.08;;;45.80;17.60;;;;;;5001528;28;20634;-71
2021/06/02 09:00:20;;;;;;;1.90;1.55;;;45.70;16.50;;;;;;5002332;28;20193;-71
2021/06/02 09:02:53;;;;;;;1.70;1.60;;;45.70;17.10;;;;;;5005249;28;20181;-71
2021/06/02 09:05:18;;;;;;;1.83;1.73;;;45.80;16.50;;;;;;5006277;28;20173;-71
2021/06/02 09:07:50;;;;;;;1.48;1.38;;;45.50;17.10;;;;;;5002479;28;20220;-71
2021/06/02 09:10:17;;;;;;;1.70;1.60;;;45.50;17.40;;;;;;5007389;28;20244;-71
2021/06/02 09:12:43;;;;;;;4.05;1.55;;;45.50;17.10;;;;;;4999716;28;20196;-71
2021/06/02 09:15:10;;;;;;;2.47;1.50;;;45.30;17.10;;;;;;5002518;28;20177;-71
2021/06/02 09:17:56;;;;;;;1.58;1.48;;;45.10;16.60;;;;;;5001813;28;20220;-71
2021/06/02 09:20:46;;;;;;;2.22;1.77;;;45.00;17.80;;;;;;5001601;28;20181;-72
2021/06/02 09:23:28;;;;;;;1.90;1.50;;;44.90;17.80;;;;;;4995976;28;20197;-72
2021/06/02 09:25:58;;;;;;;1.85;1.75;;;44.80;17.50;;;;;;4993556;28;20208;-72
2021/06/02 09:28:50;;;;;;;1.75;1.65;;;44.40;17.90;;;;;;5001228;28;20201;-72
2021/06/02 09:31:24;;;;;;;1.65;1.55;;;43.90;17.90;;;;;;5003252;28;20165;-72
2021/06/02 09:33:49;;;;;;;1.85;1.65;;;42.80;19.30;;;;;;5000401;28;20197;-72
2021/06/02 09:36:15;;;;;;;1.70;1.60;;;42.20;18.70;;;;;;5004467;28;20608;-72
2021/06/02 09:38:51;;;;;;;3.95;1.83;;;41.20;19.80;;;;;;5004021;28;20184;-72
2021/06/02 09:41:16;;;;;;;3.50;1.77;;;40.60;20.50;;;;;;4998560;28;20721;-72
2021/06/02 09:43:42;;;;;;;2.17;1.95;;;40.40;20.40;;;;;;5006933;28;20185;-72
2021/06/02 09:46:10;;;;;;;1.63;1.52;;;39.90;19.70;;;;;;5004490;28;20296;-72
2021/06/02 09:49:00;;;;;;;1.63;1.30;;;39.40;20.60;;;;;;4997302;28;20197;-71
2021/06/02 09:51:37;;;;;;;1.70;1.60;;;38.70;21.30;;;;;;5004371;28;20547;-71
2021/06/02 09:54:06;;;;;;;1.77;1.50;;;38.30;21.90;;;;;;4999370;28;20809;-71
2021/06/02 09:56:37;;;;;;;2.10;1.87;;;37.80;21.10;;;;;;5008976;28;20181;-71
2021/06/02 09:59:09;;;;;;;2.50;2.20;;;37.00;22.20;;;;;;4997680;28;20189;-71
2021/06/02 10:02:00;;;;;;;2.53;1.67;;;36.70;23.20;;;;;;4997104;28;20721;-71
2021/06/02 10:04:40;;;;;;;4.87;1.93;;;36.20;23.60;;;;;;4997979;28;20519;-71
2021/06/02 10:07:19;;;;;;;2.57;1.70;;;36.00;23.00;;;;;;4994926;28;20456;-71
2021/06/02 10:09:45;;;;;;;1.87;1.63;;;35.70;23.50;;;;;;5004486;28;21010;-71
2021/06/02 10:12:11;;;;;;;2.23;2.00;;;35.30;23.70;;;;;;4997622;28;20429;-71
2021/06/02 10:14:38;;;;;;;1.83;1.60;;;35.00;24.60;;;;;;5004209;28;20220;-71
2021/06/02 10:17:04;;;;;;;2.37;1.97;;;34.60;24.90;;;;;;5000478;28;20435;-70
2021/06/02 10:19:44;;;;;;;2.30;2.10;;;34.30;23.50;;;;;;5003765;28;20428;-70
2021/06/02 10:22:29;;;;;;;2.17;1.93;;;34.00;23.50;;;;;;5002043;28;20276;-70
2021/06/02 10:24:57;;;;;;;2.57;2.10;;;33.80;25.20;;;;;;5003502;28;20434;-70
2021/06/02 10:27:23;;;;;;;1.93;1.83;;;33.60;25.80;;;;;;5002376;28;20518;-70
2021/06/02 10:29:50;;;;;;;1.77;1.63;;;33.30;25.80;;;;;;4999986;28;20962;-70
2021/06/02 10:32:16;;;;;;;3.60;2.30;;;32.90;25.70;;;;;;5007224;28;20541;-70
2021/06/02 10:34:42;;;;;;;2.53;2.10;;;32.30;25.80;;;;;;5003951;28;20478;-70
2021/06/02 10:37:12;;;;;;;5.13;2.00;;;32.00;27.10;;;;;;5001184;28;20496;-70
2021/06/02 10:39:40;;;;;;;2.07;1.97;;;31.60;27.30;;;;;;5004973;28;20239;-70
2021/06/02 10:42:21;;;;;;;2.00;1.73;;;31.00;27.70;;;;;;5000980;28;21116;-70
2021/06/02 10:44:52;;;;;;;3.10;2.13;;;30.60;28.80;;;;;;5001505;28;20440;-70
2021/06/02 10:47:25;;;;;;;3.10;2.30;;;30.20;28.00;;;;;;4994619;28;21060;-70
2021/06/02 10:49:51;;;;;;;2.30;2.10;;;29.90;28.60;;;;;;4998894;28;20432;-70
2021/06/02 10:52:41;;;;;;;2.33;1.90;;;29.70;29.60;;;;;;5001552;28;20928;-70
2021/06/02 10:55:36;;;;;;;2.40;2.03;;;29.50;28.70;;;;;;4994895;28;20530;-70
2021/06/02 10:58:23;;;;;;;3.40;2.30;;;29.30;29.00;;;;;;4998944;28;20858;-70
2021/06/02 11:01:08;;;;;;;1.90;1.80;;;29.00;29.10;;;;;;5001866;28;21004;-70
2021/06/02 11:03:35;;;;;;;1.83;1.73;;;28.70;30.00;;;;;;5001359;28;20558;-70
2021/06/02 11:06:13;;;;;;;2.70;2.00;;;28.60;31.00;;;;;;5002868;28;20941;-70
2021/06/02 11:08:48;;;;;;;2.57;2.40;;;28.30;30.60;;;;;;4999262;28;20503;-70
2021/06/02 11:11:26;;;;;;;3.20;2.23;;;28.20;32.00;;;;;;4999909;28;20431;-70
2021/06/02 11:14:17;;;;;;;2.27;2.07;;;28.00;31.20;;;;;;4994371;28;20444;-70
2021/06/02 11:17:01;;;;;;;1.80;1.70;;;27.90;31.70;;;;;;5000649;28;20433;-70
2021/06/02 11:19:30;;;;;;;2.37;2.20;;;27.70;33.90;;;;;;5002986;28;20452;-70
2021/06/02 11:21:55;;;;;;;1.60;1.50;;;27.50;31.30;;;;;;5004793;28;20464;-70
2021/06/02 11:24:34;;;;;;;2.43;2.23;;;27.30;31.70;;;;;;5002547;28;20477;-70
2021/06/02 11:27:20;;;;;;;2.67;2.47;;;27.20;32.40;;;;;;4995998;28;20259;-70
2021/06/02 11:29:51;;;;;;;2.50;2.20;;;27.10;33.80;;;;;;4995292;28;22100;-70
2021/06/02 11:32:22;;;;;;;2.23;2.03;;;27.10;32.90;;;;;;5003501;28;20447;-70
2021/06/02 11:34:51;;;;;;;2.00;1.87;;;27.00;32.20;;;;;;5007163;28;20908;-70
2021/06/02 11:37:20;;;;;;;2.50;2.30;;;26.90;32.90;;;;;;5007087;28;20872;-70
2021/06/02 11:39:48;;;;;;;2.83;2.07;;;26.70;33.80;;;;;;5005865;28;20433;-70
2021/06/02 11:42:34;;;;;;;2.13;2.00;;;26.70;34.00;;;;;;5003172;28;20538;-70
2021/06/02 11:45:03;;;;;;;2.20;1.97;;;26.60;35.50;;;;;;5003327;28;20858;-70
2021/06/02 11:47:28;;;;;;;2.30;2.10;;;26.50;35.00;;;;;;5015708;28;20580;-70
2021/06/02 11:50:09;;;;;;;2.30;1.83;;;26.50;35.20;;;;;;5009476;28;20507;-70
2021/06/02 11:52:35;;;;;;;2.27;1.97;;;26.50;36.80;;;;;;4998795;28;20541;-69
2021/06/02 11:55:05;;;;;;;2.17;2.00;;;26.40;36.20;;;;;;5004607;28;20436;-69
2021/06/02 11:57:37;;;;;;;2.70;2.40;;;26.30;34.90;;;;;;5003391;28;20490;-69
2021/06/02 12:00:08;;;;;;;2.30;2.03;;;26.30;36.20;;;;;;5004626;28;20918;-69
2021/06/02 12:02:34;;;;;;;2.50;2.30;;;26.20;35.50;;;;;;5020711;28;20528;-69
2021/06/02 12:05:19;;;;;;;2.60;2.40;;;26.20;36.40;;;;;;5005393;28;20523;-69
2021/06/02 12:07:54;;;;;;;3.33;2.13;;;26.20;35.80;;;;;;5004518;28;20698;-69
2021/06/02 12:10:22;;;;;;;5.20;4.13;;;26.20;36.00;;;;;;5005030;28;21167;-69
2021/06/02 12:12:48;;;;;;;3.50;2.37;;;26.20;36.40;;;;;;5000613;28;20433;-69
2021/06/02 12:15:15;;;;;;;1.70;1.60;;;26.10;35.10;;;;;;5016213;28;20962;-69
2021/06/02 12:17:41;;;;;;;2.57;2.37;;;26.10;36.70;;;;;;5003331;28;20191;-70
2021/06/02 12:20:11;;;;;;;1.80;1.70;;;26.00;35.90;;;;;;5016790;28;20487;-69
2021/06/02 12:22:37;;;;;;;5.30;2.73;;;25.90;36.60;;;;;;5000705;28;20435;-69
2021/06/02 12:25:15;;;;;;;2.60;2.40;;;25.90;35.80;;;;;;5001020;28;20429;-69
2021/06/02 12:27:42;;;;;;;3.67;2.23;;;25.80;36.30;;;;;;5005379;28;20247;-69
2021/06/02 12:30:09;;;;;;;2.00;1.90;;;25.90;36.60;;;;;;5002698;28;20449;-69
2021/06/02 12:32:53;;;;;;;2.03;1.83;;;25.80;38.50;;;;;;5001359;28;21153;-69
2021/06/02 12:35:48;;;;;;;1.93;1.83;;;25.80;40.30;;;;;;5004512;28;20419;-69
2021/06/02 12:38:27;;;;;;;3.63;2.73;;;25.70;40.40;;;;;;4996917;28;20483;-69
2021/06/02 12:41:01;;;;;;;3.03;2.00;;;25.60;38.70;;;;;;5000552;28;20429;-69
2021/06/02 12:43:41;;;;;;;3.90;1.57;;;25.50;36.60;;;;;;5000384;28;20432;-69
2021/06/02 12:46:15;;;;;;;2.13;2.03;;;25.50;37.30;;;;;;5001160;28;20821;-69
2021/06/02 12:48:42;;;;;;;2.00;1.70;;;25.50;36.50;;;;;;4994828;28;20458;-69
2021/06/02 12:51:19;;;;;;;2.27;1.77;;;25.50;36.00;;;;;;5016743;28;20436;-69
2021/06/02 12:53:46;;;;;;;2.00;1.80;;;25.50;37.10;;;;;;5007624;28;22576;-69
2021/06/02 12:56:14;;;;;;;2.57;2.37;;;25.40;37.80;;;;;;5008432;28;20424;-69
2021/06/02 12:58:40;;;;;;;2.40;1.83;;;25.40;38.90;;;;;;5004536;28;20478;-69
2021/06/02 13:01:12;;;;;;;1.93;1.83;;;25.40;36.90;;;;;;5006222;28;20463;-69
2021/06/02 13:04:04;;;;;;;1.90;1.67;;;25.40;38.70;;;;;;5006875;28;20812;-69
2021/06/02 13:06:31;;;;;;;3.10;2.40;;;25.30;41.20;;;;;;5001684;28;20436;-69
2021/06/02 13:08:58;;;;;;;2.27;2.00;;;25.20;41.30;;;;;;5002042;28;20499;-69
2021/06/02 13:11:28;;;;;;;2.40;2.20;;;25.20;37.90;;;;;;5001872;28;20422;-69
2021/06/02 13:13:55;;;;;;;2.07;1.97;;;25.20;38.10;;;;;;4999882;28;20444;-69
2021/06/02 13:16:21;;;;;;;2.03;1.60;;;25.40;36.70;;;;;;5004638;28;20438;-69
2021/06/02 13:18:54;;;;;;;2.87;2.67;;;25.40;36.00;;;;;;4997713;28;20428;-69
2021/06/02 13:21:30;;;;;;;3.07;2.70;;;25.40;36.80;;;;;;5002845;28;20440;-69
2021/06/02 13:24:10;;;;;;;1.77;1.67;;;25.50;35.90;;;;;;5004135;28;20498;-69
2021/06/02 13:26:35;;;;;;;1.90;1.70;;;25.50;37.80;;;;;;4996653;28;20475;-69
2021/06/02 13:29:02;;;;;;;1.80;1.70;;;25.40;37.00;;;;;;5007607;28;20439;-69
2021/06/02 13:31:48;;;;;;;2.10;1.90;;;25.40;39.80;;;;;;5005756;28;20174;-69
2021/06/02 13:34:34;;;;;;;3.30;1.90;;;25.20;38.20;;;;;;5002055;28;20428;-69
2021/06/02 13:37:17;;;;;;;2.07;1.97;;;25.30;36.40;;;;;;4998758;28;20478;-69
2021/06/02 13:40:10;;;;;;;1.33;1.23;;;25.40;35.30;;;;;;5000000;28;21048;-69
2021/06/02 13:42:37;;;;;;;2.60;2.40;;;25.50;35.10;;;;;;4994488;28;20478;-69
2021/06/02 13:45:04;;;;;;;1.73;1.63;;;25.50;35.30;;;;;;5003943;28;20530;-69
2021/06/02 13:47:30;;;;;;;1.73;1.63;;;25.50;35.00;;;;;;4999246;28;20593;-69
2021/06/02 13:50:14;;;;;;;3.33;1.80;;;25.50;34.30;;;;;;5004284;28;20429;-69
2021/06/02 13:52:40;;;;;;;1.43;1.33;;;25.50;34.70;;;;;;5015978;28;20443;-69
2021/06/02 13:55:11;;;;;;;1.63;1.53;;;25.40;38.30;;;;;;5002113;28;20523;-69
2021/06/02 13:57:41;;;;;;;1.67;1.57;;;25.30;38.50;;;;;;5004884;28;20452;-69
2021/06/02 14:00:08;;;;;;;2.03;1.87;;;25.20;35.20;;;;;;5001852;28;20455;-69
2021/06/02 14:02:38;;;;;;;1.97;1.30;;;25.20;35.70;;;;;;5006193;28;20440;-69
2021/06/02 14:05:08;;;;;;;2.20;2.00;;;25.20;37.40;;;;;;5007080;28;20466;-69
2021/06/02 14:07:34;;;;;;;1.90;1.80;;;25.30;35.50;;;;;;5006705;28;20813;-69
2021/06/02 14:10:00;;;;;;;2.30;2.10;;;25.30;36.00;;;;;;5006809;28;20428;-69
2021/06/02 14:12:26;;;;;;;4.33;1.97;;;25.40;36.40;;;;;;5004540;28;20185;-69
2021/06/02 14:14:52;;;;;;;2.90;2.67;;;25.30;36.80;;;;;;5006410;28;20435;-69
2021/06/02 14:17:18;;;;;;;3.63;1.97;;;25.40;37.20;;;;;;5003366;28;20503;-69
2021/06/02 14:19:45;;;;;;;3.10;1.70;;;25.30;36.20;;;;;;5007361;28;20188;-69
2021/06/02 14:22:12;;;;;;;2.37;2.17;;;25.30;37.70;;;;;;5000748;28;20467;-69